sensor_id;sensor_type;location;lat;lon;timestamp;temperature;humidity
11246;DHT22;59870;50.106;8.580;2022-07-03T00:00:13;23.00;56.90
11246;DHT22;59870;50.106;8.580;2022-07-03T00:02:41;22.90;57.20
11246;DHT22;59870;50.106;8.580;2022-07-03T00:05:08;22.80;57.40
11246;DHT22;59870;50.106;8.580;2022-07-03T00:07:37;22.80;57.70
11246;DHT22;59870;50.106;8.580;2022-07-03T00:10:06;22.70;58.00
11246;DHT22;59870;50.106;8.580;2022-07-03T00:12:33;22.70;58.60
11246;DHT22;59870;50.106;8.580;2022-07-03T00:15:01;23.30;59.20
11246;DHT22;59870;50.106;8.580;2022-07-03T00:17:29;22.50;59.00
11246;DHT22;59870;50.106;8.580;2022-07-03T00:19:56;22.50;59.40
11246;DHT22;59870;50.106;8.580;2022-07-03T00:22:25;23.00;60.50
11246;DHT22;59870;50.106;8.580;2022-07-03T00:24:55;22.50;59.80
11246;DHT22;59870;50.106;8.580;2022-07-03T00:27:26;22.40;59.90
11246;DHT22;59870;50.106;8.580;2022-07-03T00:29:56;22.40;60.00
11246;DHT22;59870;50.106;8.580;2022-07-03T00:32:24;22.40;59.90
11246;DHT22;59870;50.106;8.580;2022-07-03T00:34:54;22.60;60.20
11246;DHT22;59870;50.106;8.580;2022-07-03T00:37:23;22.30;60.20
11246;DHT22;59870;50.106;8.580;2022-07-03T00:39:51;22.20;61.10
11246;DHT22;59870;50.106;8.580;2022-07-03T00:42:19;22.20;60.60
11246;DHT22;59870;50.106;8.580;2022-07-03T00:44:50;22.20;60.90
11246;DHT22;59870;50.106;8.580;2022-07-03T00:47:21;22.10;62.20
11246;DHT22;59870;50.106;8.580;2022-07-03T00:49:52;22.10;62.40
11246;DHT22;59870;50.106;8.580;2022-07-03T00:52:22;22.00;62.80
11246;DHT22;59870;50.106;8.580;2022-07-03T00:54:57;22.00;62.60
11246;DHT22;59870;50.106;8.580;2022-07-03T00:57:28;22.00;63.10
11246;DHT22;59870;50.106;8.580;2022-07-03T00:59:56;22.10;63.30
11246;DHT22;59870;50.106;8.580;2022-07-03T01:05:26;21.90;62.60
11246;DHT22;59870;50.106;8.580;2022-07-03T01:08:11;21.80;62.90
11246;DHT22;59870;50.106;8.580;2022-07-03T01:16:37;21.70;63.30
11246;DHT22;59870;50.106;8.580;2022-07-03T01:30:31;21.60;64.90
11246;DHT22;59870;50.106;8.580;2022-07-03T01:33:03;21.60;65.20
11246;DHT22;59870;50.106;8.580;2022-07-03T01:35:35;21.50;65.40
11246;DHT22;59870;50.106;8.580;2022-07-03T01:38:05;21.50;65.80
11246;DHT22;59870;50.106;8.580;2022-07-03T01:40:35;21.80;66.20
11246;DHT22;59870;50.106;8.580;2022-07-03T01:43:05;21.90;66.40
11246;DHT22;59870;50.106;8.580;2022-07-03T01:45:37;21.40;65.40
11246;DHT22;59870;50.106;8.580;2022-07-03T01:48:07;22.00;66.60
11246;DHT22;59870;50.106;8.580;2022-07-03T01:50:37;21.30;66.70
11246;DHT22;59870;50.106;8.580;2022-07-03T01:53:07;21.60;67.40
11246;DHT22;59870;50.106;8.580;2022-07-03T01:55:39;21.80;67.80
11246;DHT22;59870;50.106;8.580;2022-07-03T01:58:07;21.20;66.80
11246;DHT22;59870;50.106;8.580;2022-07-03T02:00:50;21.20;66.50
11246;DHT22;59870;50.106;8.580;2022-07-03T02:03:28;21.40;66.80
11246;DHT22;59870;50.106;8.580;2022-07-03T02:06:11;21.10;66.50
11246;DHT22;59870;50.106;8.580;2022-07-03T02:08:50;21.10;67.30
11246;DHT22;59870;50.106;8.580;2022-07-03T02:11:43;21.10;67.50
11246;DHT22;59870;50.106;8.580;2022-07-03T02:14:31;21.00;68.70
11246;DHT22;59870;50.106;8.580;2022-07-03T02:17:16;21.00;68.40
11246;DHT22;59870;50.106;8.580;2022-07-03T02:19:57;21.00;68.80
11246;DHT22;59870;50.106;8.580;2022-07-03T02:22:38;21.00;69.20
11246;DHT22;59870;50.106;8.580;2022-07-03T02:25:31;21.30;69.60
11246;DHT22;59870;50.106;8.580;2022-07-03T02:30:35;20.90;70.60
11246;DHT22;59870;50.106;8.580;2022-07-03T02:33:04;20.80;71.20
11246;DHT22;59870;50.106;8.580;2022-07-03T02:35:34;20.80;71.40
11246;DHT22;59870;50.106;8.580;2022-07-03T02:38:09;21.20;72.10
11246;DHT22;59870;50.106;8.580;2022-07-03T02:41:03;20.70;72.90
11246;DHT22;59870;50.106;8.580;2022-07-03T02:46:14;20.60;71.50
11246;DHT22;59870;50.106;8.580;2022-07-03T02:49:16;20.60;71.70
11246;DHT22;59870;50.106;8.580;2022-07-03T02:51:50;20.50;71.80
11246;DHT22;59870;50.106;8.580;2022-07-03T02:54:21;20.80;72.50
11246;DHT22;59870;50.106;8.580;2022-07-03T03:00:06;20.30;72.40
11246;DHT22;59870;50.106;8.580;2022-07-03T03:02:54;20.40;72.80
11246;DHT22;59870;50.106;8.580;2022-07-03T03:05:36;20.70;73.20
11246;DHT22;59870;50.106;8.580;2022-07-03T03:10:39;20.30;74.20
11246;DHT22;59870;50.106;8.580;2022-07-03T03:13:33;20.60;74.50
11246;DHT22;59870;50.106;8.580;2022-07-03T03:16:07;19.80;72.60
11246;DHT22;59870;50.106;8.580;2022-07-03T03:18:37;20.20;74.10
11246;DHT22;59870;50.106;8.580;2022-07-03T03:21:10;20.20;74.20
11246;DHT22;59870;50.106;8.580;2022-07-03T03:23:56;20.10;74.60
11246;DHT22;59870;50.106;8.580;2022-07-03T03:26:34;20.20;75.00
11246;DHT22;59870;50.106;8.580;2022-07-03T03:29:07;20.50;75.80
11246;DHT22;59870;50.106;8.580;2022-07-03T03:31:37;20.40;76.30
11246;DHT22;59870;50.106;8.580;2022-07-03T03:34:07;20.10;76.10
11246;DHT22;59870;50.106;8.580;2022-07-03T03:36:42;20.00;76.10
11246;DHT22;59870;50.106;8.580;2022-07-03T03:39:12;19.60;76.20
11246;DHT22;59870;50.106;8.580;2022-07-03T03:41:47;20.00;77.10
11246;DHT22;59870;50.106;8.580;2022-07-03T03:48:32;20.00;78.00
11246;DHT22;59870;50.106;8.580;2022-07-03T03:51:01;19.90;80.60
11246;DHT22;59870;50.106;8.580;2022-07-03T03:53:29;20.30;81.20
11246;DHT22;59870;50.106;8.580;2022-07-03T03:56:02;19.80;81.20
11246;DHT22;59870;50.106;8.580;2022-07-03T03:58:32;19.70;81.20
11246;DHT22;59870;50.106;8.580;2022-07-03T04:01:01;19.70;81.60
11246;DHT22;59870;50.106;8.580;2022-07-03T04:03:30;19.70;82.10
11246;DHT22;59870;50.106;8.580;2022-07-03T04:05:58;20.10;82.50
11246;DHT22;59870;50.106;8.580;2022-07-03T04:08:26;19.70;82.20
11246;DHT22;59870;50.106;8.580;2022-07-03T04:10:54;19.70;82.40
11246;DHT22;59870;50.106;8.580;2022-07-03T04:13:22;20.20;83.00
11246;DHT22;59870;50.106;8.580;2022-07-03T04:15:51;19.70;82.40
11246;DHT22;59870;50.106;8.580;2022-07-03T04:18:18;20.20;83.40
11246;DHT22;59870;50.106;8.580;2022-07-03T04:20:46;20.10;82.70
11246;DHT22;59870;50.106;8.580;2022-07-03T04:23:15;20.00;83.10
11246;DHT22;59870;50.106;8.580;2022-07-03T04:25:42;19.70;83.40
11246;DHT22;59870;50.106;8.580;2022-07-03T04:28:09;19.70;83.40
11246;DHT22;59870;50.106;8.580;2022-07-03T04:30:47;19.80;83.80
11246;DHT22;59870;50.106;8.580;2022-07-03T04:33:15;19.80;84.20
11246;DHT22;59870;50.106;8.580;2022-07-03T04:35:42;19.80;84.10
11246;DHT22;59870;50.106;8.580;2022-07-03T04:38:10;19.80;84.10
11246;DHT22;59870;50.106;8.580;2022-07-03T04:40:37;19.90;83.90
11246;DHT22;59870;50.106;8.580;2022-07-03T04:43:05;20.00;85.00
11246;DHT22;59870;50.106;8.580;2022-07-03T04:45:32;19.90;85.30
11246;DHT22;59870;50.106;8.580;2022-07-03T04:48:00;20.00;84.70
11246;DHT22;59870;50.106;8.580;2022-07-03T04:50:27;20.00;85.10
11246;DHT22;59870;50.106;8.580;2022-07-03T04:52:54;20.40;85.50
11246;DHT22;59870;50.106;8.580;2022-07-03T04:55:22;20.10;85.50
11246;DHT22;59870;50.106;8.580;2022-07-03T04:57:49;20.10;85.80
11246;DHT22;59870;50.106;8.580;2022-07-03T05:00:17;20.60;86.30
11246;DHT22;59870;50.106;8.580;2022-07-03T05:02:44;20.30;86.10
11246;DHT22;59870;50.106;8.580;2022-07-03T05:05:11;20.60;85.90
11246;DHT22;59870;50.106;8.580;2022-07-03T05:07:39;20.50;85.60
11246;DHT22;59870;50.106;8.580;2022-07-03T05:10:07;20.60;86.10
11246;DHT22;59870;50.106;8.580;2022-07-03T05:13:08;20.70;86.60
11246;DHT22;59870;50.106;8.580;2022-07-03T05:20:39;21.20;86.50
11246;DHT22;59870;50.106;8.580;2022-07-03T05:23:20;21.40;84.40
11246;DHT22;59870;50.106;8.580;2022-07-03T05:26:20;21.60;83.20
11246;DHT22;59870;50.106;8.580;2022-07-03T05:28:57;21.70;82.90
11246;DHT22;59870;50.106;8.580;2022-07-03T05:31:30;22.20;82.60
11246;DHT22;59870;50.106;8.580;2022-07-03T05:33:59;22.10;81.50
11246;DHT22;59870;50.106;8.580;2022-07-03T05:36:44;22.50;80.80
11246;DHT22;59870;50.106;8.580;2022-07-03T05:39:56;22.40;78.70
11246;DHT22;59870;50.106;8.580;2022-07-03T05:42:57;22.60;78.90
11246;DHT22;59870;50.106;8.580;2022-07-03T05:46:27;22.80;77.90
11246;DHT22;59870;50.106;8.580;2022-07-03T05:50:48;23.00;76.70
11246;DHT22;59870;50.106;8.580;2022-07-03T05:54:38;23.40;75.10
11246;DHT22;59870;50.106;8.580;2022-07-03T05:58:50;23.90;73.00
11246;DHT22;59870;50.106;8.580;2022-07-03T06:08:18;25.80;69.50
11246;DHT22;59870;50.106;8.580;2022-07-03T06:12:12;26.70;61.70
11246;DHT22;59870;50.106;8.580;2022-07-03T06:24:04;29.50;53.10
11246;DHT22;59870;50.106;8.580;2022-07-03T06:26:32;30.00;50.90
11246;DHT22;59870;50.106;8.580;2022-07-03T06:28:59;30.40;49.60
11246;DHT22;59870;50.106;8.580;2022-07-03T06:31:27;30.90;48.00
11246;DHT22;59870;50.106;8.580;2022-07-03T06:33:54;31.20;47.30
11246;DHT22;59870;50.106;8.580;2022-07-03T06:36:21;31.50;47.10
11246;DHT22;59870;50.106;8.580;2022-07-03T06:38:49;31.70;46.00
11246;DHT22;59870;50.106;8.580;2022-07-03T06:41:16;32.00;44.60
11246;DHT22;59870;50.106;8.580;2022-07-03T06:43:44;32.30;43.90
11246;DHT22;59870;50.106;8.580;2022-07-03T06:46:16;32.60;42.50
11246;DHT22;59870;50.106;8.580;2022-07-03T06:48:44;32.90;41.70
11246;DHT22;59870;50.106;8.580;2022-07-03T06:51:11;33.00;40.90
11246;DHT22;59870;50.106;8.580;2022-07-03T06:53:43;33.20;40.50
11246;DHT22;59870;50.106;8.580;2022-07-03T06:56:13;33.40;40.70
11246;DHT22;59870;50.106;8.580;2022-07-03T06:58:41;33.60;40.10
11246;DHT22;59870;50.106;8.580;2022-07-03T07:01:10;33.80;39.10
11246;DHT22;59870;50.106;8.580;2022-07-03T07:03:39;34.00;38.70
11246;DHT22;59870;50.106;8.580;2022-07-03T07:06:06;34.10;38.70
11246;DHT22;59870;50.106;8.580;2022-07-03T07:08:34;34.30;38.00
11246;DHT22;59870;50.106;8.580;2022-07-03T07:11:01;34.50;37.70
11246;DHT22;59870;50.106;8.580;2022-07-03T07:13:29;34.70;37.30
11246;DHT22;59870;50.106;8.580;2022-07-03T07:15:56;34.90;37.10
11246;DHT22;59870;50.106;8.580;2022-07-03T07:18:23;35.20;35.80
11246;DHT22;59870;50.106;8.580;2022-07-03T07:20:51;35.30;35.70
11246;DHT22;59870;50.106;8.580;2022-07-03T07:23:19;35.50;35.70
11246;DHT22;59870;50.106;8.580;2022-07-03T07:25:46;35.70;35.70
11246;DHT22;59870;50.106;8.580;2022-07-03T07:28:14;35.90;35.80
11246;DHT22;59870;50.106;8.580;2022-07-03T07:30:41;36.10;35.20
11246;DHT22;59870;50.106;8.580;2022-07-03T07:33:09;36.30;34.40
11246;DHT22;59870;50.106;8.580;2022-07-03T07:35:37;36.40;34.00
11246;DHT22;59870;50.106;8.580;2022-07-03T07:38:04;36.70;33.00
11246;DHT22;59870;50.106;8.580;2022-07-03T07:40:35;36.70;34.10
11246;DHT22;59870;50.106;8.580;2022-07-03T07:43:03;36.80;33.60
11246;DHT22;59870;50.106;8.580;2022-07-03T07:45:30;36.90;33.30
11246;DHT22;59870;50.106;8.580;2022-07-03T07:47:58;37.30;33.60
11246;DHT22;59870;50.106;8.580;2022-07-03T07:50:26;37.40;33.40
11246;DHT22;59870;50.106;8.580;2022-07-03T07:52:54;37.30;33.20
11246;DHT22;59870;50.106;8.580;2022-07-03T07:55:21;37.50;32.70
11246;DHT22;59870;50.106;8.580;2022-07-03T07:57:49;37.60;31.30
11246;DHT22;59870;50.106;8.580;2022-07-03T08:00:18;37.70;32.50
11246;DHT22;59870;50.106;8.580;2022-07-03T08:02:47;37.70;31.90
11246;DHT22;59870;50.106;8.580;2022-07-03T08:05:36;37.90;30.60
11246;DHT22;59870;50.106;8.580;2022-07-03T08:08:09;38.30;31.20
11246;DHT22;59870;50.106;8.580;2022-07-03T08:10:45;38.00;30.20
11246;DHT22;59870;50.106;8.580;2022-07-03T08:13:16;38.20;30.80
11246;DHT22;59870;50.106;8.580;2022-07-03T08:15:47;38.30;30.40
11246;DHT22;59870;50.106;8.580;2022-07-03T08:18:14;38.50;29.40
11246;DHT22;59870;50.106;8.580;2022-07-03T08:20:44;38.50;29.80
11246;DHT22;59870;50.106;8.580;2022-07-03T08:23:19;38.60;29.20
11246;DHT22;59870;50.106;8.580;2022-07-03T08:25:47;38.70;29.30
11246;DHT22;59870;50.106;8.580;2022-07-03T08:28:15;38.90;29.90
11246;DHT22;59870;50.106;8.580;2022-07-03T08:30:42;39.10;29.30
11246;DHT22;59870;50.106;8.580;2022-07-03T08:33:10;39.40;29.20
11246;DHT22;59870;50.106;8.580;2022-07-03T08:35:37;39.40;29.10
11246;DHT22;59870;50.106;8.580;2022-07-03T08:38:05;39.60;27.90
11246;DHT22;59870;50.106;8.580;2022-07-03T08:40:33;39.50;28.30
11246;DHT22;59870;50.106;8.580;2022-07-03T08:43:01;39.60;28.00
11246;DHT22;59870;50.106;8.580;2022-07-03T08:45:30;39.70;28.20
11246;DHT22;59870;50.106;8.580;2022-07-03T08:48:04;39.90;28.20
11246;DHT22;59870;50.106;8.580;2022-07-03T08:50:33;40.00;27.70
11246;DHT22;59870;50.106;8.580;2022-07-03T08:53:01;40.00;27.70
11246;DHT22;59870;50.106;8.580;2022-07-03T08:55:30;40.30;27.50
11246;DHT22;59870;50.106;8.580;2022-07-03T08:58:02;40.20;28.00
11246;DHT22;59870;50.106;8.580;2022-07-03T09:00:29;40.30;27.40
11246;DHT22;59870;50.106;8.580;2022-07-03T09:02:59;40.50;27.30
11246;DHT22;59870;50.106;8.580;2022-07-03T09:05:27;40.50;27.40
11246;DHT22;59870;50.106;8.580;2022-07-03T09:07:55;40.60;26.90
11246;DHT22;59870;50.106;8.580;2022-07-03T09:10:24;40.70;27.00
11246;DHT22;59870;50.106;8.580;2022-07-03T09:12:52;40.80;27.20
11246;DHT22;59870;50.106;8.580;2022-07-03T09:15:20;40.90;27.00
11246;DHT22;59870;50.106;8.580;2022-07-03T09:18:00;41.00;26.80
11246;DHT22;59870;50.106;8.580;2022-07-03T09:20:30;41.00;27.00
11246;DHT22;59870;50.106;8.580;2022-07-03T09:23:14;41.30;26.50
11246;DHT22;59870;50.106;8.580;2022-07-03T09:25:59;41.30;26.40
11246;DHT22;59870;50.106;8.580;2022-07-03T09:28:49;41.60;27.10
11246;DHT22;59870;50.106;8.580;2022-07-03T09:31:22;41.50;26.80
11246;DHT22;59870;50.106;8.580;2022-07-03T09:34:03;41.70;26.10
11246;DHT22;59870;50.106;8.580;2022-07-03T09:36:41;41.80;26.30
11246;DHT22;59870;50.106;8.580;2022-07-03T09:57:41;41.90;24.00
11246;DHT22;59870;50.106;8.580;2022-07-03T10:00:23;41.70;24.20
11246;DHT22;59870;50.106;8.580;2022-07-03T10:03:07;41.50;25.10
11246;DHT22;59870;50.106;8.580;2022-07-03T10:05:37;41.10;25.20
11246;DHT22;59870;50.106;8.580;2022-07-03T10:08:12;40.90;25.50
11246;DHT22;59870;50.106;8.580;2022-07-03T10:10:42;40.60;25.60
11246;DHT22;59870;50.106;8.580;2022-07-03T10:13:10;40.40;25.10
11246;DHT22;59870;50.106;8.580;2022-07-03T10:15:39;40.10;25.80
11246;DHT22;59870;50.106;8.580;2022-07-03T10:18:08;39.90;25.90
11246;DHT22;59870;50.106;8.580;2022-07-03T10:23:12;39.30;26.80
11246;DHT22;59870;50.106;8.580;2022-07-03T10:25:44;39.10;27.20
11246;DHT22;59870;50.106;8.580;2022-07-03T10:28:12;38.90;27.10
11246;DHT22;59870;50.106;8.580;2022-07-03T10:30:48;38.70;26.10
11246;DHT22;59870;50.106;8.580;2022-07-03T10:33:16;38.50;27.00
11246;DHT22;59870;50.106;8.580;2022-07-03T10:35:48;38.40;28.00
11246;DHT22;59870;50.106;8.580;2022-07-03T10:38:32;38.20;27.80
11246;DHT22;59870;50.106;8.580;2022-07-03T10:44:01;37.80;27.40
11246;DHT22;59870;50.106;8.580;2022-07-03T10:46:47;37.60;28.30
11246;DHT22;59870;50.106;8.580;2022-07-03T10:49:15;37.40;28.50
11246;DHT22;59870;50.106;8.580;2022-07-03T10:51:51;37.30;28.00
11246;DHT22;59870;50.106;8.580;2022-07-03T10:54:22;37.10;28.80
11246;DHT22;59870;50.106;8.580;2022-07-03T11:02:23;36.90;28.70
11246;DHT22;59870;50.106;8.580;2022-07-03T11:07:43;36.50;29.00
11246;DHT22;59870;50.106;8.580;2022-07-03T11:23:33;36.20;28.60
11246;DHT22;59870;50.106;8.580;2022-07-03T11:36:31;35.90;29.60
11246;DHT22;59870;50.106;8.580;2022-07-03T11:41:30;35.80;28.10
11246;DHT22;59870;50.106;8.580;2022-07-03T11:44:01;35.70;28.80
11246;DHT22;59870;50.106;8.580;2022-07-03T11:46:33;35.70;28.70
11246;DHT22;59870;50.106;8.580;2022-07-03T11:49:06;35.60;28.40
11246;DHT22;59870;50.106;8.580;2022-07-03T11:51:35;35.60;29.80
11246;DHT22;59870;50.106;8.580;2022-07-03T11:54:03;35.50;28.80
11246;DHT22;59870;50.106;8.580;2022-07-03T11:56:31;35.50;28.70
11246;DHT22;59870;50.106;8.580;2022-07-03T11:59:01;35.40;29.10
11246;DHT22;59870;50.106;8.580;2022-07-03T12:01:31;35.40;28.10
11246;DHT22;59870;50.106;8.580;2022-07-03T12:09:13;35.20;28.40
11246;DHT22;59870;50.106;8.580;2022-07-03T12:11:51;35.10;29.00
11246;DHT22;59870;50.106;8.580;2022-07-03T12:14:45;35.10;28.70
11246;DHT22;59870;50.106;8.580;2022-07-03T12:19:50;35.00;28.90
11246;DHT22;59870;50.106;8.580;2022-07-03T12:25:06;35.00;29.00
11246;DHT22;59870;50.106;8.580;2022-07-03T12:27:39;34.90;29.50
11246;DHT22;59870;50.106;8.580;2022-07-03T12:30:12;34.90;28.90
11246;DHT22;59870;50.106;8.580;2022-07-03T12:32:40;34.80;28.00
11246;DHT22;59870;50.106;8.580;2022-07-03T12:35:08;34.80;29.50
11246;DHT22;59870;50.106;8.580;2022-07-03T12:37:38;34.80;29.70
11246;DHT22;59870;50.106;8.580;2022-07-03T12:40:10;34.70;29.80
11246;DHT22;59870;50.106;8.580;2022-07-03T12:42:49;34.70;30.00
11246;DHT22;59870;50.106;8.580;2022-07-03T12:45:30;34.70;30.40
11246;DHT22;59870;50.106;8.580;2022-07-03T12:48:05;34.70;30.00
11246;DHT22;59870;50.106;8.580;2022-07-03T12:51:02;34.60;29.80
11246;DHT22;59870;50.106;8.580;2022-07-03T12:53:32;34.60;30.40
11246;DHT22;59870;50.106;8.580;2022-07-03T12:56:01;34.60;30.00
11246;DHT22;59870;50.106;8.580;2022-07-03T12:58:29;34.50;30.50
11246;DHT22;59870;50.106;8.580;2022-07-03T13:01:32;34.50;29.50
11246;DHT22;59870;50.106;8.580;2022-07-03T13:07:20;34.40;30.00
11246;DHT22;59870;50.106;8.580;2022-07-03T13:09:54;34.50;30.00
11246;DHT22;59870;50.106;8.580;2022-07-03T13:12:22;34.40;29.30
11246;DHT22;59870;50.106;8.580;2022-07-03T13:15:00;34.40;30.00
11246;DHT22;59870;50.106;8.580;2022-07-03T13:20:24;34.40;30.20
11246;DHT22;59870;50.106;8.580;2022-07-03T13:22:54;34.40;30.00
11246;DHT22;59870;50.106;8.580;2022-07-03T13:25:22;34.40;30.40
11246;DHT22;59870;50.106;8.580;2022-07-03T13:27:49;34.40;30.30
11246;DHT22;59870;50.106;8.580;2022-07-03T13:34:02;34.40;28.60
11246;DHT22;59870;50.106;8.580;2022-07-03T13:36:30;34.30;29.10
11246;DHT22;59870;50.106;8.580;2022-07-03T13:39:23;34.30;30.00
11246;DHT22;59870;50.106;8.580;2022-07-03T13:41:50;34.30;29.80
11246;DHT22;59870;50.106;8.580;2022-07-03T13:44:18;34.30;30.60
11246;DHT22;59870;50.106;8.580;2022-07-03T13:46:45;34.30;30.60
11246;DHT22;59870;50.106;8.580;2022-07-03T13:49:17;34.30;30.50
11246;DHT22;59870;50.106;8.580;2022-07-03T13:51:45;34.30;29.80
11246;DHT22;59870;50.106;8.580;2022-07-03T13:54:13;34.30;31.30
11246;DHT22;59870;50.106;8.580;2022-07-03T13:56:40;34.30;31.10
11246;DHT22;59870;50.106;8.580;2022-07-03T13:59:07;34.40;30.70
11246;DHT22;59870;50.106;8.580;2022-07-03T14:01:35;34.40;30.00
11246;DHT22;59870;50.106;8.580;2022-07-03T14:04:04;34.40;30.00
11246;DHT22;59870;50.106;8.580;2022-07-03T14:06:44;34.40;30.00
11246;DHT22;59870;50.106;8.580;2022-07-03T14:09:21;34.40;30.20
11246;DHT22;59870;50.106;8.580;2022-07-03T14:12:19;34.40;30.70
11246;DHT22;59870;50.106;8.580;2022-07-03T14:14:47;34.40;30.20
11246;DHT22;59870;50.106;8.580;2022-07-03T14:17:14;34.50;30.00
11246;DHT22;59870;50.106;8.580;2022-07-03T14:19:42;34.50;30.30
11246;DHT22;59870;50.106;8.580;2022-07-03T14:22:09;34.40;29.40
11246;DHT22;59870;50.106;8.580;2022-07-03T14:24:37;34.40;28.30
11246;DHT22;59870;50.106;8.580;2022-07-03T14:27:10;34.40;28.90
11246;DHT22;59870;50.106;8.580;2022-07-03T14:29:56;34.30;29.40
11246;DHT22;59870;50.106;8.580;2022-07-03T14:32:42;34.40;30.20
11246;DHT22;59870;50.106;8.580;2022-07-03T14:35:10;34.40;29.60
11246;DHT22;59870;50.106;8.580;2022-07-03T14:37:37;34.30;29.40
11246;DHT22;59870;50.106;8.580;2022-07-03T14:40:05;34.40;30.20
11246;DHT22;59870;50.106;8.580;2022-07-03T14:42:33;34.40;29.70
11246;DHT22;59870;50.106;8.580;2022-07-03T14:45:00;34.40;29.40
11246;DHT22;59870;50.106;8.580;2022-07-03T14:47:27;34.40;29.60
11246;DHT22;59870;50.106;8.580;2022-07-03T14:49:55;34.40;29.20
11246;DHT22;59870;50.106;8.580;2022-07-03T14:52:22;34.50;29.80
11246;DHT22;59870;50.106;8.580;2022-07-03T14:54:55;34.40;29.40
11246;DHT22;59870;50.106;8.580;2022-07-03T14:57:36;34.40;28.90
11246;DHT22;59870;50.106;8.580;2022-07-03T15:00:11;34.40;29.50
11246;DHT22;59870;50.106;8.580;2022-07-03T15:03:05;34.40;29.60
11246;DHT22;59870;50.106;8.580;2022-07-03T15:05:35;34.50;29.00
11246;DHT22;59870;50.106;8.580;2022-07-03T15:10:53;34.50;28.80
11246;DHT22;59870;50.106;8.580;2022-07-03T15:13:21;34.40;28.80
11246;DHT22;59870;50.106;8.580;2022-07-03T15:15:50;34.40;28.60
11246;DHT22;59870;50.106;8.580;2022-07-03T15:18:19;34.40;28.60
11246;DHT22;59870;50.106;8.580;2022-07-03T15:20:51;34.40;29.10
11246;DHT22;59870;50.106;8.580;2022-07-03T15:23:19;34.40;29.10
11246;DHT22;59870;50.106;8.580;2022-07-03T15:25:48;34.40;29.80
11246;DHT22;59870;50.106;8.580;2022-07-03T15:28:17;34.40;29.50
11246;DHT22;59870;50.106;8.580;2022-07-03T15:30:52;34.40;29.70
11246;DHT22;59870;50.106;8.580;2022-07-03T15:33:23;34.40;28.80
11246;DHT22;59870;50.106;8.580;2022-07-03T15:35:57;34.40;27.90
11246;DHT22;59870;50.106;8.580;2022-07-03T15:38:51;34.40;28.10
11246;DHT22;59870;50.106;8.580;2022-07-03T15:41:28;34.50;27.70
11246;DHT22;59870;50.106;8.580;2022-07-03T15:44:10;34.40;28.50
11246;DHT22;59870;50.106;8.580;2022-07-03T15:49:55;34.30;27.90
11246;DHT22;59870;50.106;8.580;2022-07-03T15:52:28;34.20;28.70
11246;DHT22;59870;50.106;8.580;2022-07-03T15:58:03;34.20;28.80
11246;DHT22;59870;50.106;8.580;2022-07-03T16:00:35;34.20;28.90
11246;DHT22;59870;50.106;8.580;2022-07-03T16:03:15;34.20;29.40
11246;DHT22;59870;50.106;8.580;2022-07-03T16:05:45;34.20;28.60
11246;DHT22;59870;50.106;8.580;2022-07-03T16:08:14;34.30;29.00
11246;DHT22;59870;50.106;8.580;2022-07-03T16:10:42;34.20;28.60
11246;DHT22;59870;50.106;8.580;2022-07-03T16:13:10;34.20;28.10
11246;DHT22;59870;50.106;8.580;2022-07-03T16:15:39;34.20;28.40
11246;DHT22;59870;50.106;8.580;2022-07-03T16:18:11;34.30;28.50
11246;DHT22;59870;50.106;8.580;2022-07-03T16:20:39;34.20;28.70
11246;DHT22;59870;50.106;8.580;2022-07-03T16:23:09;34.20;28.20
11246;DHT22;59870;50.106;8.580;2022-07-03T16:25:38;34.20;27.60
11246;DHT22;59870;50.106;8.580;2022-07-03T16:28:10;34.20;28.20
11246;DHT22;59870;50.106;8.580;2022-07-03T16:31:36;34.20;28.10
11246;DHT22;59870;50.106;8.580;2022-07-03T16:35:30;34.60;28.30
11246;DHT22;59870;50.106;8.580;2022-07-03T16:38:10;34.10;28.50
11246;DHT22;59870;50.106;8.580;2022-07-03T16:40:40;34.10;27.90
11246;DHT22;59870;50.106;8.580;2022-07-03T16:43:11;34.10;28.80
11246;DHT22;59870;50.106;8.580;2022-07-03T16:45:40;34.10;28.30
11246;DHT22;59870;50.106;8.580;2022-07-03T16:48:14;34.10;27.90
11246;DHT22;59870;50.106;8.580;2022-07-03T16:50:56;34.10;28.00
11246;DHT22;59870;50.106;8.580;2022-07-03T16:54:29;34.10;27.90
11246;DHT22;59870;50.106;8.580;2022-07-03T16:57:02;34.30;27.70
11246;DHT22;59870;50.106;8.580;2022-07-03T17:00:24;34.10;28.40
11246;DHT22;59870;50.106;8.580;2022-07-03T17:02:52;34.00;27.40
11246;DHT22;59870;50.106;8.580;2022-07-03T17:05:23;33.70;27.20
11246;DHT22;59870;50.106;8.580;2022-07-03T17:07:54;34.00;27.80
11246;DHT22;59870;50.106;8.580;2022-07-03T17:10:23;33.90;28.20
11246;DHT22;59870;50.106;8.580;2022-07-03T17:12:57;34.00;28.30
11246;DHT22;59870;50.106;8.580;2022-07-03T17:15:27;33.90;27.70
11246;DHT22;59870;50.106;8.580;2022-07-03T17:18:03;33.80;28.00
11246;DHT22;59870;50.106;8.580;2022-07-03T17:20:47;33.80;28.00
11246;DHT22;59870;50.106;8.580;2022-07-03T17:23:21;33.80;27.60
11246;DHT22;59870;50.106;8.580;2022-07-03T17:25:57;33.80;27.90
11246;DHT22;59870;50.106;8.580;2022-07-03T17:28:25;33.80;27.40
11246;DHT22;59870;50.106;8.580;2022-07-03T17:31:03;33.70;27.60
11246;DHT22;59870;50.106;8.580;2022-07-03T17:33:31;33.70;27.60
11246;DHT22;59870;50.106;8.580;2022-07-03T17:36:06;33.60;27.70
11246;DHT22;59870;50.106;8.580;2022-07-03T17:38:37;33.60;27.30
11246;DHT22;59870;50.106;8.580;2022-07-03T17:41:12;33.50;28.30
11246;DHT22;59870;50.106;8.580;2022-07-03T17:43:42;33.40;27.60
11246;DHT22;59870;50.106;8.580;2022-07-03T17:46:10;33.40;27.90
11246;DHT22;59870;50.106;8.580;2022-07-03T17:48:40;33.30;28.70
11246;DHT22;59870;50.106;8.580;2022-07-03T17:51:13;33.30;28.20
11246;DHT22;59870;50.106;8.580;2022-07-03T17:53:44;33.30;28.90
11246;DHT22;59870;50.106;8.580;2022-07-03T17:56:15;33.20;28.60
11246;DHT22;59870;50.106;8.580;2022-07-03T17:58:45;33.20;28.90
11246;DHT22;59870;50.106;8.580;2022-07-03T18:01:15;33.20;28.50
11246;DHT22;59870;50.106;8.580;2022-07-03T18:03:44;33.10;28.20
11246;DHT22;59870;50.106;8.580;2022-07-03T18:06:17;33.10;28.80
11246;DHT22;59870;50.106;8.580;2022-07-03T18:12:00;32.90;29.50
11246;DHT22;59870;50.106;8.580;2022-07-03T18:16:59;32.90;29.30
11246;DHT22;59870;50.106;8.580;2022-07-03T18:19:28;32.90;29.60
11246;DHT22;59870;50.106;8.580;2022-07-03T18:22:01;32.90;29.60
11246;DHT22;59870;50.106;8.580;2022-07-03T18:24:39;32.80;29.50
11246;DHT22;59870;50.106;8.580;2022-07-03T18:27:09;32.80;30.00
11246;DHT22;59870;50.106;8.580;2022-07-03T18:29:38;32.80;30.00
11246;DHT22;59870;50.106;8.580;2022-07-03T18:32:07;32.80;30.40
11246;DHT22;59870;50.106;8.580;2022-07-03T18:34:35;32.70;30.70
11246;DHT22;59870;50.106;8.580;2022-07-03T18:37:04;32.70;30.60
11246;DHT22;59870;50.106;8.580;2022-07-03T18:39:32;32.60;31.10
11246;DHT22;59870;50.106;8.580;2022-07-03T18:42:00;32.50;31.40